Prinsendam — PBGH — position and weather

sailwx.info

Track history (hours):
 
Tides and Currents Weather Stations Pressure Air Temp Water Temp Dewpoint Dewpoint Depression Visibility Wind Speed Wind Dir Waves Ship Positions

Prinsendam

Operator: Holland America Line

Last reported at 2017-May-28 06:30 UTC. Time now 2017-May-28 06:45 UTC.
Position N 57°51' E 006°33'.

Type: Ship. MMSI: 244126000.

Date/timePositionNaut miles runAvg speedWind from/ knotsBaromVisibWave heightAir tempDewpointWater temp
2017-May-28 06:30N 57°51' E 006°33'714.9
2017-May-28 06:00N 57°49' E 006°46'815.3
2017-May-28 05:31N 57°49' E 007°00'815.9
2017-May-28 05:00N 57°49' E 007°16'816.2
2017-May-28 04:30N 57°47' E 007°31'816.1
2017-May-28 04:00N 57°47' E 007°46'815.3
2017-May-28 03:30N 57°49' E 007°60'815.9
2017-May-28 03:00N 57°52' E 008°13'41239.6
2017-May-28 03:00N 57°48' E 008°12'1123.1 160 / 311010.0 5.4 15.013.215.0
2017-May-28 02:31N 57°56' E 008°26'816.4
2017-May-28 02:01N 58°00' E 008°40'816.0
2017-May-28 01:31N 58°05' E 008°52'816.0
2017-May-28 01:01N 58°11' E 009°02'816.6
2017-May-28 00:31N 58°17' E 009°12'816.9
2017-May-28 00:01N 58°23' E 009°23'816.4
2017-May-27 23:30N 58°29' E 009°34'916.6
2017-May-27 22:58N 58°36' E 009°46'816.3
2017-May-27 22:30N 58°41' E 009°56'816.3
2017-May-27 22:00N 58°47' E 010°07'6454.5
2017-May-27 22:00N 58°42' E 010°00'1429.2 350 / 321015.010.8 15.013.214.0
2017-May-27 21:31N 58°53' E 010°18'815.4
2017-May-27 21:01N 58°58' E 010°29'611.9
2017-May-27 20:30N 59°03' E 010°35'4 7.9
2017-May-27 20:00N 59°07' E 010°36'612.8
2017-May-27 19:31N 59°13' E 010°37'713.3
2017-May-27 19:00N 59°20' E 010°35'612.9
2017-May-27 18:31N 59°26' E 010°33'713.0
2017-May-27 18:01N 59°32' E 010°36'611.7
2017-May-27 17:31N 59°38' E 010°37'612.3
2017-May-27 17:01N 59°44' E 010°33'713.5
2017-May-27 16:31N 59°51' E 010°35'611.3
2017-May-27 16:00N 59°54' E 010°44'0 0.2
2017-May-27 15:28N 59°54' E 010°44'0 0.0
2017-May-27 14:58N 59°54' E 010°44'0 0.0
2017-May-27 14:28N 59°54' E 010°44'0 0.0
2017-May-27 13:28N 59°54' E 010°44'0 0.0
2017-May-27 12:58N 59°54' E 010°44'0 0.0
2017-May-27 12:28N 59°54' E 010°44'0 0.0
2017-May-27 11:58N 59°54' E 010°44'0 0.0
2017-May-27 11:28N 59°54' E 010°44'0 0.0
2017-May-27 10:58N 59°54' E 010°44'0 0.0
2017-May-27 10:25N 59°54' E 010°44'0 0.0
2017-May-27 09:58N 59°54' E 010°44'0 0.0
2017-May-27 09:28N 59°54' E 010°44'0 0.0
2017-May-27 08:58N 59°54' E 010°44'0 0.0
2017-May-27 08:28N 59°54' E 010°44'0 0.0
2017-May-27 07:58N 59°54' E 010°44'0 0.0
2017-May-27 07:30N 59°54' E 010°44'2 4.8
2017-May-27 07:00N 59°53' E 010°40'714.0
2017-May-27 06:30N 59°47' E 010°34'612.4
2017-May-27 06:00N 59°41' E 010°37'613.0
2017-May-27 05:31N 59°34' E 010°38'815.5
2017-May-27 05:00N 59°27' E 010°34'3201.2
2017-May-27 05:00N 59°24' E 010°30'613.1 180 / 71018.0 2.2 12.010.112.0
2017-May-27 04:31N 59°19' E 010°36'816.5
2017-May-27 04:01N 59°10' E 010°40'5294.0
2017-May-27 04:00N 59°06' E 010°36'2 4.1 170 / 91018.0 1.1 12.010.112.0
2017-May-27 03:30N 59°04' E 010°34'713.2
2017-May-27 03:00N 58°58' E 010°34'714.7
2017-May-27 02:30N 58°50' E 010°34'714.7
2017-May-27 02:00N 58°43' E 010°33'816.2
2017-May-27 01:31N 58°35' E 010°33'917.0
2017-May-27 01:01N 58°26' E 010°35'917.1
2017-May-27 00:31N 58°18' E 010°40'917.1
2017-May-27 00:00N 58°11' E 010°50'917.4
2017-May-26 23:30N 58°04' E 010°57'917.7
2017-May-26 23:00N 57°55' E 011°04'917.6
2017-May-26 22:30N 57°47' E 011°10'816.9
2017-May-26 22:00N 57°40' E 011°17'917.4
2017-May-26 21:30N 57°32' E 011°23'917.6
2017-May-26 21:00N 57°24' E 011°30'917.0
2017-May-26 20:30N 57°16' E 011°36'917.1
2017-May-26 20:00N 57°08' E 011°40'917.4
2017-May-26 19:30N 56°59' E 011°45'1117.7
2017-May-26 18:52N 56°49' E 011°54'917.2
2017-May-26 18:21N 56°40' E 011°56'2317.5
2017-May-26 17:04N 56°19' E 012°10'118.2
2017-May-26 17:00N 56°18' E 012°11'918.2
2017-May-26 16:31N 56°12' E 012°22'918.1
2017-May-26 16:01N 56°06' E 012°35'713.6
2017-May-26 15:30N 56°00' E 012°41'714.8
2017-May-26 15:00N 55°53' E 012°44'815.8
2017-May-26 14:30N 55°45' E 012°41'4 4.0
2017-May-26 13:29N 55°42' E 012°36'0 0.0
2017-May-26 12:59N 55°42' E 012°36'0 0.0
2017-May-26 12:29N 55°42' E 012°36'0 0.0
2017-May-26 11:59N 55°42' E 012°36'0 0.0
2017-May-26 11:29N 55°42' E 012°36'0 0.0
2017-May-26 10:59N 55°42' E 012°36'0 0.0
2017-May-26 10:29N 55°42' E 012°36'0 0.0
2017-May-26 09:59N 55°42' E 012°36'0 0.0
2017-May-26 09:29N 55°42' E 012°36'0 0.0
2017-May-26 08:59N 55°42' E 012°36'0 0.0
2017-May-26 08:29N 55°42' E 012°36'0 0.0
2017-May-26 07:59N 55°42' E 012°36'0 0.0
2017-May-26 07:29N 55°42' E 012°36'0 0.0
2017-May-26 06:59N 55°42' E 012°36'0 0.0
2017-May-26 06:29N 55°42' E 012°36'0 0.0
2017-May-26 05:59N 55°42' E 012°36'0 0.0
2017-May-26 05:29N 55°42' E 012°36'0 0.0
2017-May-26 04:59N 55°42' E 012°36'0 0.0
2017-May-26 04:29N 55°42' E 012°36'0 0.0
2017-May-26 03:59N 55°42' E 012°36'0 0.0
2017-May-26 03:29N 55°42' E 012°36'0 0.0
2017-May-26 02:59N 55°42' E 012°36'0 0.0
2017-May-26 02:29N 55°42' E 012°36'0 0.0
2017-May-26 01:59N 55°42' E 012°36'0 0.0
2017-May-26 01:29N 55°42' E 012°36'0 0.0
2017-May-26 00:59N 55°42' E 012°36'0 0.0
2017-May-26 00:29N 55°42' E 012°36'0 0.0
2017-May-25 23:59N 55°42' E 012°36'0 0.0
2017-May-25 23:29N 55°42' E 012°36'0 0.0
2017-May-25 22:59N 55°42' E 012°36'0 0.0
2017-May-25 22:29N 55°42' E 012°36'0 0.0
2017-May-25 21:59N 55°42' E 012°36'0 0.0
2017-May-25 21:29N 55°42' E 012°36'0 0.0
2017-May-25 20:59N 55°42' E 012°36'0 0.0
2017-May-25 20:29N 55°42' E 012°36'0 0.0
2017-May-25 19:59N 55°42' E 012°36'0 0.0
2017-May-25 19:29N 55°42' E 012°36'0 0.0
2017-May-25 18:59N 55°42' E 012°36'0 0.0
2017-May-25 18:29N 55°42' E 012°36'0 0.0
2017-May-25 17:59N 55°42' E 012°36'0 0.0
2017-May-25 17:29N 55°42' E 012°36'0 0.0
2017-May-25 16:59N 55°42' E 012°36'0 0.0
2017-May-25 16:29N 55°42' E 012°36'0 0.0
2017-May-25 15:59N 55°42' E 012°36'0 0.0
2017-May-25 15:29N 55°42' E 012°36'0 0.6
2017-May-25 15:00N 55°42' E 012°36'10 9.6
2017-May-25 14:00N 55°51' E 012°45'510.0
2017-May-25 13:30N 55°55' E 012°43'4 8.6
2017-May-25 13:00N 55°59' E 012°38'3 5.9
2017-May-25 12:30N 56°02' E 012°37'0 0.1
2017-May-25 12:00N 56°02' E 012°37'0 0.1
2017-May-25 11:30N 56°02' E 012°37'0 0.1
2017-May-25 11:00N 56°02' E 012°37'0 0.1
2017-May-25 10:30N 56°02' E 012°37'0 0.1
2017-May-25 10:00N 56°02' E 012°37'0 0.1
2017-May-25 09:30N 56°02' E 012°37'0 0.1
2017-May-25 09:00N 56°02' E 012°37'0 0.1
2017-May-25 08:30N 56°02' E 012°37'0 0.1
2017-May-25 08:00N 56°02' E 012°37'0 0.0
2017-May-25 07:30N 56°02' E 012°37'0 0.1
2017-May-25 07:00N 56°02' E 012°37'2675.1
2017-May-25 07:00N 56°00' E 012°36'2 3.4 330 / 171015.110.8 15.812.613.5
2017-May-25 06:30N 56°02' E 012°37'0 0.1
2017-May-25 06:00N 56°02' E 012°37'0 0.0
2017-May-25 05:30N 56°02' E 012°37'0 0.3
2017-May-25 05:00N 56°01' E 012°38'3 6.5
2017-May-25 04:30N 56°05' E 012°36'611.0
2017-May-25 04:00N 56°08' E 012°28'3192.6
2017-May-25 04:00N 56°06' E 012°24'510.6 290 / 171014.310.8 11.0 9.013.0
2017-May-25 03:30N 56°11' E 012°21'5 9.7
2017-May-25 03:00N 56°12' E 012°12'513.3 290 / 161014.210.8 11.0 9.013.0
2017-May-25 02:38N 56°16' E 012°07'2 9.9
2017-May-25 02:26N 56°17' E 012°04'7 9.5
2017-May-25 01:39N 56°20' E 011°51'210.3
2017-May-25 01:26N 56°20' E 011°47'59 2.9
2017-May-24 05:00N 55°36' E 010°36'1615.7 360 / 491013.610.8 11.0 9.012.0
2017-May-24 04:00N 55°24' E 010°54'1212.5 180 / 311012.0 5.4 11.0 9.012.0
2017-May-24 03:00N 55°12' E 011°00'913.5 200 / 271012.610.8 11.0 9.012.0
2017-May-24 02:21N 55°03' E 011°02'616.6
2017-May-24 02:01N 54°58' E 010°60'815.7
2017-May-24 01:31N 54°51' E 010°53'815.5
2017-May-24 01:00N 54°43' E 010°53'714.3
2017-May-24 00:30N 54°37' E 010°49'60 6.7
2017-May-23 15:32N 54°06' E 009°20'2 6.6
2017-May-23 15:12N 54°04' E 009°19'1 6.5
2017-May-23 15:00N 54°03' E 009°18'3 6.3
2017-May-23 14:30N 53°60' E 009°18'6 6.2
2017-May-23 13:30N 53°55' E 009°11'2 3.9
2017-May-23 13:01N 53°54' E 009°09'0 0.0
2017-May-23 12:30N 53°54' E 009°09'0 0.0
2017-May-23 12:01N 53°54' E 009°09'0 0.2
2017-May-23 11:31N 53°54' E 009°09'1 1.5
2017-May-23 11:01N 53°53' E 009°08'2 4.0
2017-May-23 10:29N 53°53' E 009°12'0 0.1
2017-May-23 09:59N 53°53' E 009°12'0 0.0
2017-May-23 09:29N 53°53' E 009°12'0 0.0
2017-May-23 09:00N 53°53' E 009°12'0 0.0
2017-May-23 08:30N 53°53' E 009°12'0 0.0
2017-May-23 08:00N 53°53' E 009°12'5377.6
2017-May-23 08:00N 53°48' E 009°12'510.4 170 / 51012.2 5.4 17.514.618.0
2017-May-23 07:30N 53°53' E 009°12'0 0.1
2017-May-23 07:00N 53°53' E 009°12'3 6.1
2017-May-23 06:30N 53°52' E 009°17'713.3
2017-May-23 06:01N 53°47' E 009°23'815.0
2017-May-23 05:31N 53°41' E 009°30'713.1
2017-May-23 05:01N 53°35' E 009°37'612.5
2017-May-23 04:30N 53°34' E 009°47'510.7
2017-May-23 04:01N 53°32' E 009°56'2 4.5
2017-May-23 03:29N 53°32' E 009°60'0 0.0
2017-May-23 02:59N 53°32' E 009°60'0 0.0
2017-May-23 02:29N 53°32' E 009°60'0 0.0
2017-May-23 01:58N 53°32' E 009°60'0 0.0
2017-May-23 01:29N 53°32' E 009°60'0 0.0
2017-May-23 00:59N 53°32' E 009°60'0 0.0
2017-May-23 00:29N 53°32' E 009°60'0 0.0
2017-May-22 23:59N 53°32' E 009°60'0 0.0
2017-May-22 23:29N 53°32' E 009°60'0 0.0
2017-May-22 22:59N 53°32' E 009°60'0 0.0
2017-May-22 22:29N 53°32' E 009°60'0 0.0
2017-May-22 21:59N 53°32' E 009°60'0 0.0
2017-May-22 21:29N 53°32' E 009°60'0 0.0
2017-May-22 20:59N 53°32' E 009°60'0 0.0
2017-May-22 20:29N 53°32' E 009°60'0 0.0
2017-May-22 19:59N 53°32' E 009°60'0 0.0
2017-May-22 19:29N 53°32' E 009°60'0 0.0
2017-May-22 18:59N 53°32' E 009°60'0 0.0
2017-May-22 18:29N 53°32' E 009°60'0 0.0
2017-May-22 17:59N 53°32' E 009°60'0 0.0
2017-May-22 17:28N 53°32' E 009°60'0 0.0
2017-May-22 16:58N 53°32' E 009°60'0 0.0
2017-May-22 16:29N 53°32' E 009°60'0 0.0
2017-May-22 15:59N 53°32' E 009°60'0 0.0
2017-May-22 15:29N 53°32' E 009°60'0 0.0
2017-May-22 14:59N 53°32' E 009°60'0 0.0
2017-May-22 13:59N 53°32' E 009°60'0 0.0
2017-May-22 13:29N 53°32' E 009°60'0 0.0
2017-May-22 12:58N 53°32' E 009°60'0 0.0
2017-May-22 12:29N 53°32' E 009°60'0 0.0
2017-May-22 11:59N 53°32' E 009°60'0 0.0
2017-May-22 11:29N 53°32' E 009°60'0 0.0
2017-May-22 10:59N 53°32' E 009°60'0 0.0
2017-May-22 10:28N 53°32' E 009°60'0 0.0
2017-May-22 09:59N 53°32' E 009°60'0 0.0
2017-May-22 09:29N 53°32' E 009°60'0 0.0
2017-May-22 08:59N 53°32' E 009°60'0 0.0
2017-May-22 08:29N 53°32' E 009°60'0 0.0
2017-May-22 07:56N 53°32' E 009°60'0 0.0
2017-May-22 07:29N 53°32' E 009°60'0 0.0
2017-May-22 06:59N 53°32' E 009°60'0 0.0
2017-May-22 06:28N 53°32' E 009°60'0 0.0
2017-May-22 05:58N 53°32' E 009°60'0 0.0
2017-May-22 05:28N 53°32' E 009°60'0 0.0
2017-May-22 04:58N 53°32' E 009°60'0 0.0
2017-May-22 04:29N 53°32' E 009°60'0 0.0
2017-May-22 03:58N 53°32' E 009°60'0 0.0
2017-May-22 03:28N 53°32' E 009°60'0 0.0
2017-May-22 02:55N 53°32' E 009°60'0 0.0
2017-May-22 02:28N 53°32' E 009°60'0 0.0
2017-May-22 01:59N 53°32' E 009°60'0 0.0
2017-May-22 01:29N 53°32' E 009°60'0 0.0
2017-May-22 00:58N 53°32' E 009°60'0 0.0
2017-May-22 00:29N 53°32' E 009°60'0 0.0
2017-May-21 23:59N 53°32' E 009°60'0 0.0
2017-May-21 23:28N 53°32' E 009°60'0 0.0
2017-May-21 22:58N 53°32' E 009°60'0 0.0
2017-May-21 22:29N 53°32' E 009°60'0 0.0
2017-May-21 21:58N 53°32' E 009°60'0 0.0
2017-May-21 21:28N 53°32' E 009°60'0 0.0
2017-May-21 20:58N 53°32' E 009°60'0 0.0
2017-May-21 20:28N 53°32' E 009°60'0 0.0
2017-May-21 19:58N 53°32' E 009°60'0 0.0
2017-May-21 19:28N 53°32' E 009°60'0 0.0
2017-May-21 18:58N 53°32' E 009°60'0 0.0
2017-May-21 18:28N 53°32' E 009°60'0 0.0
2017-May-21 17:59N 53°32' E 009°60'0 0.0
2017-May-21 17:28N 53°32' E 009°60'0 0.0
2017-May-21 16:58N 53°32' E 009°60'0 0.0
2017-May-21 16:25N 53°32' E 009°60'0 0.0
2017-May-21 15:58N 53°32' E 009°60'0 0.0
2017-May-21 15:28N 53°32' E 009°60'0 0.0
2017-May-21 14:58N 53°32' E 009°60'0 0.0
2017-May-21 13:59N 53°32' E 009°60'0 0.0
2017-May-21 13:28N 53°32' E 009°60'0 0.0
2017-May-21 13:00N 53°32' E 009°60'0 0.0
2017-May-21 12:30N 53°32' E 009°60'0 0.6
2017-May-21 12:01N 53°32' E 009°59'3 5.6
2017-May-21 11:30N 53°32' E 009°55'4 7.3
2017-May-21 11:00N 53°33' E 009°49'510.8
2017-May-21 10:31N 53°34' E 009°40'713.6
2017-May-21 10:01N 53°39' E 009°31'612.7
2017-May-21 09:30N 53°44' E 009°26'815.4
2017-May-21 09:00N 53°51' E 009°19'714.0
2017-May-21 08:31N 53°53' E 009°08'611.0
2017-May-21 08:00N 53°51' E 008°59'713.7
2017-May-21 07:30N 53°50' E 008°47'611.2
2017-May-21 07:01N 53°54' E 008°41'714.4
2017-May-21 06:30N 53°58' E 008°31'815.5
2017-May-21 06:00N 53°60' E 008°18'6349.5
2017-May-21 06:00N 53°54' E 008°18'815.4 190 / 231023.010.8 14.011.211.0
2017-May-21 05:29N 53°59' E 008°08'714.4
2017-May-21 05:00N 53°54' E 008°00'443.6 170 / 211023.3 5.4 12.010.112.0
2017-May-21 04:53N 53°58' E 007°58'613.3
2017-May-21 04:27N 53°57' E 007°48'816.7
2017-May-21 04:00N 53°54' E 007°36'1515.4 170 / 171023.0 5.4 12.010.112.0
2017-May-21 03:00N 53°48' E 007°12'6017.7 180 / 161022.810.8 11.911.912.0
2017-May-20 23:37N 53°35' E 005°33'717.2
2017-May-20 23:12N 53°33' E 005°22'732.2
2017-May-20 23:00N 53°30' E 005°12'235.0 210 / 221022.010.8 14.010.212.0
2017-May-20 22:55N 53°32' E 005°14'717.2
2017-May-20 22:30N 53°30' E 005°02'917.2
2017-May-20 21:59N 53°26' E 004°49'816.4
2017-May-20 21:30N 53°20' E 004°41'917.4
2017-May-20 21:00N 53°12' E 004°33'917.1
2017-May-20 20:30N 53°05' E 004°26'917.2
2017-May-20 20:00N 52°57' E 004°19'917.3
2017-May-20 19:30N 52°49' E 004°14'816.5
2017-May-20 19:00N 52°42' E 004°06'713.0
2017-May-20 18:30N 52°36' E 004°06'5 9.6
2017-May-20 18:01N 52°32' E 004°10'5 9.9
2017-May-20 17:30N 52°30' E 004°18'612.6
2017-May-20 17:00N 52°29' E 004°28'5 9.5
2017-May-20 16:31N 52°28' E 004°36'1 1.4
2017-May-20 16:00N 52°28' E 004°37'3 6.1
2017-May-20 15:30N 52°27' E 004°41'4 8.6
2017-May-20 15:00N 52°25' E 004°48'5 4.9
2017-May-20 14:00N 52°23' E 004°55'0 0.0
2017-May-20 13:30N 52°23' E 004°55'0 0.0
2017-May-20 13:00N 52°23' E 004°55'0 0.0
2017-May-20 12:30N 52°23' E 004°55'0 0.0
2017-May-20 12:00N 52°23' E 004°55'0 0.0
2017-May-20 11:30N 52°23' E 004°55'0 0.0
2017-May-20 11:00N 52°23' E 004°55'0 0.0
2017-May-20 10:30N 52°23' E 004°55'0 0.0
2017-May-20 10:00N 52°23' E 004°55'0 0.0
2017-May-20 09:30N 52°23' E 004°55'0 0.0
2017-May-20 09:00N 52°23' E 004°55'0 0.0
2017-May-20 08:30N 52°23' E 004°55'0 0.0
2017-May-20 08:00N 52°23' E 004°55'0 0.0
2017-May-20 07:30N 52°23' E 004°55'0 0.0
2017-May-20 07:00N 52°23' E 004°55'0 0.0
2017-May-20 06:30N 52°23' E 004°55'0 0.0
2017-May-20 06:00N 52°23' E 004°55'0 0.0
2017-May-20 05:30N 52°23' E 004°55'0 0.0
2017-May-20 05:01N 52°23' E 004°55'1 2.2
2017-May-20 04:31N 52°24' E 004°54'4 7.6
2017-May-20 04:01N 52°25' E 004°48'4 8.3
2017-May-20 03:30N 52°27' E 004°42'3 6.5
2017-May-20 03:00N 52°28' E 004°37'1 1.6
2017-May-20 02:30N 52°28' E 004°35'4 7.7
2017-May-20 02:00N 52°28' E 004°29'4 7.9
2017-May-20 01:30N 52°29' E 004°23'5 9.7
2017-May-20 01:00N 52°29' E 004°15'612.6
2017-May-20 00:30N 52°28' E 004°04'612.8
2017-May-20 00:00N 52°27' E 003°54'612.6
2017-May-19 23:30N 52°25' E 003°44'5112.1
2017-May-19 19:17N 51°48' E 002°48'413.1
2017-May-19 18:59N 51°44' E 002°46'612.3
2017-May-19 18:30N 51°38' E 002°43'612.7
2017-May-19 18:00N 51°32' E 002°42'611.8
2017-May-19 17:30N 51°26' E 002°43'4 8.9
2017-May-19 17:00N 51°22' E 002°46'612.9
2017-May-19 16:30N 51°23' E 002°56'713.3
2017-May-19 16:00N 51°24' E 003°07'5 9.6
2017-May-19 15:30N 51°21' E 003°12'0 0.2
2017-May-19 14:59N 51°20' E 003°12'0 0.0
2017-May-19 13:59N 51°20' E 003°12'0 0.0
2017-May-19 13:29N 51°20' E 003°12'0 0.0
2017-May-19 12:59N 51°20' E 003°12'0 0.0
2017-May-19 12:29N 51°20' E 003°12'2 4.9
2017-May-19 12:00N 51°18' E 003°12'2441.5 250 / 211009.810.8 13.011.112.0
2017-May-19 11:59N 51°20' E 003°12'0 0.0
2017-May-19 11:29N 51°20' E 003°12'0 0.0
2017-May-19 10:59N 51°20' E 003°12'0 0.0
2017-May-19 10:29N 51°20' E 003°12'0 0.0
2017-May-19 09:59N 51°20' E 003°12'0 0.0
2017-May-19 09:29N 51°20' E 003°12'0 0.0
2017-May-19 08:59N 51°20' E 003°12'0 0.0
2017-May-19 08:29N 51°20' E 003°12'0 0.0
2017-May-19 07:59N 51°20' E 003°12'0 0.0
2017-May-19 07:29N 51°20' E 003°12'0 0.0
2017-May-19 06:59N 51°20' E 003°12'0 0.0
2017-May-19 06:29N 51°20' E 003°12'0 0.0
2017-May-19 05:59N 51°20' E 003°12'1 2.0
2017-May-19 05:30N 51°21' E 003°12'714.0
2017-May-19 05:01N 51°25' E 003°02'917.0
2017-May-19 04:31N 51°25' E 002°48'1120.4
2017-May-19 04:00N 51°18' E 002°36'514.3 300 / 241005.4 5.4 10.0 7.913.0
2017-May-19 03:38N 51°22' E 002°32'415.4
2017-May-19 03:20N 51°21' E 002°25'515.2
2017-May-19 03:00N 51°18' E 002°18'0 4.3
2017-May-19 03:00N 51°18' E 002°18'815.5 290 / 301005.510.8 10.0 7.913.0
2017-May-19 02:30N 51°14' E 002°08'714.9
2017-May-19 02:00N 51°11' E 001°57'7471.4
2017-May-19 02:00N 51°06' E 001°48'2 3.6 290 / 291006.010.8 10.010.012.0
2017-May-19 01:30N 51°07' E 001°47'714.6
2017-May-19 01:00N 51°02' E 001°39'714.3
2017-May-19 00:30N 50°58' E 001°30'713.5
2017-May-19 00:00N 50°51' E 001°26'4715.4
2017-May-18 20:55N 50°23' E 000°27'717.3
2017-May-18 20:30N 50°21' E 000°16'917.2
2017-May-18 20:00N 50°19' E 000°03'917.2
2017-May-18 19:30N 50°15' W 000°09'917.1
2017-May-18 19:00N 50°11' W 000°21'1016.9
2017-May-18 18:27N 50°07' W 000°35'1 2.7
2017-May-18 18:00N 50°06' W 000°36'7256.1 300 / 231010.0 5.4 11.010.011.4
2017-May-18 17:58N 50°03' W 000°46'  
Track history (hours):
 
Tides and Currents Weather Stations Pressure Air Temp Water Temp Dewpoint Dewpoint Depression Visibility Wind Speed Wind Dir Waves Ship Positions

Prinsendam

Operator: Holland America Line

Last reported at 2017-May-28 06:30 UTC. Time now 2017-May-28 06:45 UTC.
Position N 57°51' E 006°33'.

Type: Ship. MMSI: 244126000.

Date/timePositionNaut miles runAvg speedWind from/ knotsBaromVisibWave heightAir tempDewpointWater temp
2017-May-28 06:30N 57°51' E 006°33'714.9
2017-May-28 06:00N 57°49' E 006°46'815.3
2017-May-28 05:31N 57°49' E 007°00'815.9
2017-May-28 05:00N 57°49' E 007°16'816.2
2017-May-28 04:30N 57°47' E 007°31'816.1
2017-May-28 04:00N 57°47' E 007°46'815.3
2017-May-28 03:30N 57°49' E 007°60'815.9
2017-May-28 03:00N 57°52' E 008°13'41239.6
2017-May-28 03:00N 57°48' E 008°12'1123.1 160 / 311010.0 5.4 15.013.215.0
2017-May-28 02:31N 57°56' E 008°26'816.4
2017-May-28 02:01N 58°00' E 008°40'816.0
2017-May-28 01:31N 58°05' E 008°52'816.0
2017-May-28 01:01N 58°11' E 009°02'816.6
2017-May-28 00:31N 58°17' E 009°12'816.9
2017-May-28 00:01N 58°23' E 009°23'816.4
2017-May-27 23:30N 58°29' E 009°34'916.6
2017-May-27 22:58N 58°36' E 009°46'816.3
2017-May-27 22:30N 58°41' E 009°56'816.3
2017-May-27 22:00N 58°47' E 010°07'6454.5
2017-May-27 22:00N 58°42' E 010°00'1429.2 350 / 321015.010.8 15.013.214.0
2017-May-27 21:31N 58°53' E 010°18'815.4
2017-May-27 21:01N 58°58' E 010°29'611.9
2017-May-27 20:30N 59°03' E 010°35'4 7.9
2017-May-27 20:00N 59°07' E 010°36'612.8
2017-May-27 19:31N 59°13' E 010°37'713.3
2017-May-27 19:00N 59°20' E 010°35'612.9
2017-May-27 18:31N 59°26' E 010°33'713.0
2017-May-27 18:01N 59°32' E 010°36'611.7
2017-May-27 17:31N 59°38' E 010°37'612.3
2017-May-27 17:01N 59°44' E 010°33'713.5
2017-May-27 16:31N 59°51' E 010°35'611.3
2017-May-27 16:00N 59°54' E 010°44'0 0.2
2017-May-27 15:28N 59°54' E 010°44'0 0.0
2017-May-27 14:58N 59°54' E 010°44'0 0.0
2017-May-27 14:28N 59°54' E 010°44'0 0.0
2017-May-27 13:28N 59°54' E 010°44'0 0.0
2017-May-27 12:58N 59°54' E 010°44'0 0.0
2017-May-27 12:28N 59°54' E 010°44'0 0.0
2017-May-27 11:58N 59°54' E 010°44'0 0.0
2017-May-27 11:28N 59°54' E 010°44'0 0.0
2017-May-27 10:58N 59°54' E 010°44'0 0.0
2017-May-27 10:25N 59°54' E 010°44'0 0.0
2017-May-27 09:58N 59°54' E 010°44'0 0.0
2017-May-27 09:28N 59°54' E 010°44'0 0.0
2017-May-27 08:58N 59°54' E 010°44'0 0.0
2017-May-27 08:28N 59°54' E 010°44'0 0.0
2017-May-27 07:58N 59°54' E 010°44'0 0.0
2017-May-27 07:30N 59°54' E 010°44'2 4.8
2017-May-27 07:00N 59°53' E 010°40'714.0
2017-May-27 06:30N 59°47' E 010°34'612.4
2017-May-27 06:00N 59°41' E 010°37'613.0
2017-May-27 05:31N 59°34' E 010°38'815.5
2017-May-27 05:00N 59°27' E 010°34'3201.2
2017-May-27 05:00N 59°24' E 010°30'613.1 180 / 71018.0 2.2 12.010.112.0
2017-May-27 04:31N 59°19' E 010°36'816.5
2017-May-27 04:01N 59°10' E 010°40'5294.0
2017-May-27 04:00N 59°06' E 010°36'2 4.1 170 / 91018.0 1.1 12.010.112.0
2017-May-27 03:30N 59°04' E 010°34'713.2
2017-May-27 03:00N 58°58' E 010°34'714.7
2017-May-27 02:30N 58°50' E 010°34'714.7
2017-May-27 02:00N 58°43' E 010°33'816.2
2017-May-27 01:31N 58°35' E 010°33'917.0
2017-May-27 01:01N 58°26' E 010°35'917.1
2017-May-27 00:31N 58°18' E 010°40'917.1
2017-May-27 00:00N 58°11' E 010°50'917.4
2017-May-26 23:30N 58°04' E 010°57'917.7
2017-May-26 23:00N 57°55' E 011°04'917.6
2017-May-26 22:30N 57°47' E 011°10'816.9
2017-May-26 22:00N 57°40' E 011°17'917.4
2017-May-26 21:30N 57°32' E 011°23'917.6
2017-May-26 21:00N 57°24' E 011°30'917.0
2017-May-26 20:30N 57°16' E 011°36'917.1
2017-May-26 20:00N 57°08' E 011°40'917.4
2017-May-26 19:30N 56°59' E 011°45'1117.7
2017-May-26 18:52N 56°49' E 011°54'917.2
2017-May-26 18:21N 56°40' E 011°56'2317.5
2017-May-26 17:04N 56°19' E 012°10'118.2
2017-May-26 17:00N 56°18' E 012°11'918.2
2017-May-26 16:31N 56°12' E 012°22'918.1
2017-May-26 16:01N 56°06' E 012°35'713.6
2017-May-26 15:30N 56°00' E 012°41'714.8
2017-May-26 15:00N 55°53' E 012°44'815.8
2017-May-26 14:30N 55°45' E 012°41'4 4.0
2017-May-26 13:29N 55°42' E 012°36'0 0.0
2017-May-26 12:59N 55°42' E 012°36'0 0.0
2017-May-26 12:29N 55°42' E 012°36'0 0.0
2017-May-26 11:59N 55°42' E 012°36'0 0.0
2017-May-26 11:29N 55°42' E 012°36'0 0.0
2017-May-26 10:59N 55°42' E 012°36'0 0.0
2017-May-26 10:29N 55°42' E 012°36'0 0.0
2017-May-26 09:59N 55°42' E 012°36'0 0.0
2017-May-26 09:29N 55°42' E 012°36'0 0.0
2017-May-26 08:59N 55°42' E 012°36'0 0.0
2017-May-26 08:29N 55°42' E 012°36'0 0.0
2017-May-26 07:59N 55°42' E 012°36'0 0.0
2017-May-26 07:29N 55°42' E 012°36'0 0.0
2017-May-26 06:59N 55°42' E 012°36'0 0.0
2017-May-26 06:29N 55°42' E 012°36'0 0.0
2017-May-26 05:59N 55°42' E 012°36'0 0.0
2017-May-26 05:29N 55°42' E 012°36'0 0.0
2017-May-26 04:59N 55°42' E 012°36'0 0.0
2017-May-26 04:29N 55°42' E 012°36'0 0.0
2017-May-26 03:59N 55°42' E 012°36'0 0.0
2017-May-26 03:29N 55°42' E 012°36'0 0.0
2017-May-26 02:59N 55°42' E 012°36'0 0.0
2017-May-26 02:29N 55°42' E 012°36'0 0.0
2017-May-26 01:59N 55°42' E 012°36'0 0.0
2017-May-26 01:29N 55°42' E 012°36'0 0.0
2017-May-26 00:59N 55°42' E 012°36'0 0.0
2017-May-26 00:29N 55°42' E 012°36'0 0.0
2017-May-25 23:59N 55°42' E 012°36'0 0.0
2017-May-25 23:29N 55°42' E 012°36'0 0.0
2017-May-25 22:59N 55°42' E 012°36'0 0.0
2017-May-25 22:29N 55°42' E 012°36'0 0.0
2017-May-25 21:59N 55°42' E 012°36'0 0.0
2017-May-25 21:29N 55°42' E 012°36'0 0.0
2017-May-25 20:59N 55°42' E 012°36'0 0.0
2017-May-25 20:29N 55°42' E 012°36'0 0.0
2017-May-25 19:59N 55°42' E 012°36'0 0.0
2017-May-25 19:29N 55°42' E 012°36'0 0.0
2017-May-25 18:59N 55°42' E 012°36'0 0.0
2017-May-25 18:29N 55°42' E 012°36'0 0.0
2017-May-25 17:59N 55°42' E 012°36'0 0.0
2017-May-25 17:29N 55°42' E 012°36'0 0.0
2017-May-25 16:59N 55°42' E 012°36'0 0.0
2017-May-25 16:29N 55°42' E 012°36'0 0.0
2017-May-25 15:59N 55°42' E 012°36'0 0.0
2017-May-25 15:29N 55°42' E 012°36'0 0.6
2017-May-25 15:00N 55°42' E 012°36'10 9.6
2017-May-25 14:00N 55°51' E 012°45'510.0
2017-May-25 13:30N 55°55' E 012°43'4 8.6
2017-May-25 13:00N 55°59' E 012°38'3 5.9
2017-May-25 12:30N 56°02' E 012°37'0 0.1
2017-May-25 12:00N 56°02' E 012°37'0 0.1
2017-May-25 11:30N 56°02' E 012°37'0 0.1
2017-May-25 11:00N 56°02' E 012°37'0 0.1
2017-May-25 10:30N 56°02' E 012°37'0 0.1
2017-May-25 10:00N 56°02' E 012°37'0 0.1
2017-May-25 09:30N 56°02' E 012°37'0 0.1
2017-May-25 09:00N 56°02' E 012°37'0 0.1
2017-May-25 08:30N 56°02' E 012°37'0 0.1
2017-May-25 08:00N 56°02' E 012°37'0 0.0
2017-May-25 07:30N 56°02' E 012°37'0 0.1
2017-May-25 07:00N 56°02' E 012°37'2675.1
2017-May-25 07:00N 56°00' E 012°36'2 3.4 330 / 171015.110.8 15.812.613.5
2017-May-25 06:30N 56°02' E 012°37'0 0.1
2017-May-25 06:00N 56°02' E 012°37'0 0.0
2017-May-25 05:30N 56°02' E 012°37'0 0.3
2017-May-25 05:00N 56°01' E 012°38'3 6.5
2017-May-25 04:30N 56°05' E 012°36'611.0
2017-May-25 04:00N 56°08' E 012°28'3192.6
2017-May-25 04:00N 56°06' E 012°24'510.6 290 / 171014.310.8 11.0 9.013.0
2017-May-25 03:30N 56°11' E 012°21'5 9.7
2017-May-25 03:00N 56°12' E 012°12'513.3 290 / 161014.210.8 11.0 9.013.0
2017-May-25 02:38N 56°16' E 012°07'2 9.9
2017-May-25 02:26N 56°17' E 012°04'7 9.5
2017-May-25 01:39N 56°20' E 011°51'210.3
2017-May-25 01:26N 56°20' E 011°47'59 2.9
2017-May-24 05:00N 55°36' E 010°36'1615.7 360 / 491013.610.8 11.0 9.012.0
2017-May-24 04:00N 55°24' E 010°54'1212.5 180 / 311012.0 5.4 11.0 9.012.0
2017-May-24 03:00N 55°12' E 011°00'913.5 200 / 271012.610.8 11.0 9.012.0
2017-May-24 02:21N 55°03' E 011°02'616.6
2017-May-24 02:01N 54°58' E 010°60'815.7
2017-May-24 01:31N 54°51' E 010°53'815.5
2017-May-24 01:00N 54°43' E 010°53'714.3
2017-May-24 00:30N 54°37' E 010°49'60 6.7
2017-May-23 15:32N 54°06' E 009°20'2 6.6
2017-May-23 15:12N 54°04' E 009°19'1 6.5
2017-May-23 15:00N 54°03' E 009°18'3 6.3
2017-May-23 14:30N 53°60' E 009°18'6 6.2
2017-May-23 13:30N 53°55' E 009°11'2 3.9
2017-May-23 13:01N 53°54' E 009°09'0 0.0
2017-May-23 12:30N 53°54' E 009°09'0 0.0
2017-May-23 12:01N 53°54' E 009°09'0 0.2
2017-May-23 11:31N 53°54' E 009°09'1 1.5
2017-May-23 11:01N 53°53' E 009°08'2 4.0
2017-May-23 10:29N 53°53' E 009°12'0 0.1
2017-May-23 09:59N 53°53' E 009°12'0 0.0
2017-May-23 09:29N 53°53' E 009°12'0 0.0
2017-May-23 09:00N 53°53' E 009°12'0 0.0
2017-May-23 08:30N 53°53' E 009°12'0 0.0
2017-May-23 08:00N 53°53' E 009°12'5377.6
2017-May-23 08:00N 53°48' E 009°12'510.4 170 / 51012.2 5.4 17.514.618.0
2017-May-23 07:30N 53°53' E 009°12'0 0.1
2017-May-23 07:00N 53°53' E 009°12'3 6.1
2017-May-23 06:30N 53°52' E 009°17'713.3
2017-May-23 06:01N 53°47' E 009°23'815.0
2017-May-23 05:31N 53°41' E 009°30'713.1
2017-May-23 05:01N 53°35' E 009°37'612.5
2017-May-23 04:30N 53°34' E 009°47'510.7
2017-May-23 04:01N 53°32' E 009°56'2 4.5
2017-May-23 03:29N 53°32' E 009°60'0 0.0
2017-May-23 02:59N 53°32' E 009°60'0 0.0
2017-May-23 02:29N 53°32' E 009°60'0 0.0
2017-May-23 01:58N 53°32' E 009°60'0 0.0
2017-May-23 01:29N 53°32' E 009°60'0 0.0
2017-May-23 00:59N 53°32' E 009°60'0 0.0
2017-May-23 00:29N 53°32' E 009°60'0 0.0
2017-May-22 23:59N 53°32' E 009°60'0 0.0
2017-May-22 23:29N 53°32' E 009°60'0 0.0
2017-May-22 22:59N 53°32' E 009°60'0 0.0
2017-May-22 22:29N 53°32' E 009°60'0 0.0
2017-May-22 21:59N 53°32' E 009°60'0 0.0
2017-May-22 21:29N 53°32' E 009°60'0 0.0
2017-May-22 20:59N 53°32' E 009°60'0 0.0
2017-May-22 20:29N 53°32' E 009°60'0 0.0
2017-May-22 19:59N 53°32' E 009°60'0 0.0
2017-May-22 19:29N 53°32' E 009°60'0 0.0
2017-May-22 18:59N 53°32' E 009°60'0 0.0
2017-May-22 18:29N 53°32' E 009°60'0 0.0
2017-May-22 17:59N 53°32' E 009°60'0 0.0
2017-May-22 17:28N 53°32' E 009°60'0 0.0
2017-May-22 16:58N 53°32' E 009°60'0 0.0
2017-May-22 16:29N 53°32' E 009°60'0 0.0
2017-May-22 15:59N 53°32' E 009°60'0 0.0
2017-May-22 15:29N 53°32' E 009°60'0 0.0
2017-May-22 14:59N 53°32' E 009°60'0 0.0
2017-May-22 13:59N 53°32' E 009°60'0 0.0
2017-May-22 13:29N 53°32' E 009°60'0 0.0
2017-May-22 12:58N 53°32' E 009°60'0 0.0
2017-May-22 12:29N 53°32' E 009°60'0 0.0
2017-May-22 11:59N 53°32' E 009°60'0 0.0
2017-May-22 11:29N 53°32' E 009°60'0 0.0
2017-May-22 10:59N 53°32' E 009°60'0 0.0
2017-May-22 10:28N 53°32' E 009°60'0 0.0
2017-May-22 09:59N 53°32' E 009°60'0 0.0
2017-May-22 09:29N 53°32' E 009°60'0 0.0
2017-May-22 08:59N 53°32' E 009°60'0 0.0
2017-May-22 08:29N 53°32' E 009°60'0 0.0
2017-May-22 07:56N 53°32' E 009°60'0 0.0
2017-May-22 07:29N 53°32' E 009°60'0 0.0
2017-May-22 06:59N 53°32' E 009°60'0 0.0
2017-May-22 06:28N 53°32' E 009°60'0 0.0
2017-May-22 05:58N 53°32' E 009°60'0 0.0
2017-May-22 05:28N 53°32' E 009°60'0 0.0
2017-May-22 04:58N 53°32' E 009°60'0 0.0
2017-May-22 04:29N 53°32' E 009°60'0 0.0
2017-May-22 03:58N 53°32' E 009°60'0 0.0
2017-May-22 03:28N 53°32' E 009°60'0 0.0
2017-May-22 02:55N 53°32' E 009°60'0 0.0
2017-May-22 02:28N 53°32' E 009°60'0 0.0
2017-May-22 01:59N 53°32' E 009°60'0 0.0
2017-May-22 01:29N 53°32' E 009°60'0 0.0
2017-May-22 00:58N 53°32' E 009°60'0 0.0
2017-May-22 00:29N 53°32' E 009°60'0 0.0
2017-May-21 23:59N 53°32' E 009°60'0 0.0
2017-May-21 23:28N 53°32' E 009°60'0 0.0
2017-May-21 22:58N 53°32' E 009°60'0 0.0
2017-May-21 22:29N 53°32' E 009°60'0 0.0
2017-May-21 21:58N 53°32' E 009°60'0 0.0
2017-May-21 21:28N 53°32' E 009°60'0 0.0
2017-May-21 20:58N 53°32' E 009°60'0 0.0
2017-May-21 20:28N 53°32' E 009°60'0 0.0
2017-May-21 19:58N 53°32' E 009°60'0 0.0
2017-May-21 19:28N 53°32' E 009°60'0 0.0
2017-May-21 18:58N 53°32' E 009°60'0 0.0
2017-May-21 18:28N 53°32' E 009°60'0 0.0
2017-May-21 17:59N 53°32' E 009°60'0 0.0
2017-May-21 17:28N 53°32' E 009°60'0 0.0
2017-May-21 16:58N 53°32' E 009°60'0 0.0
2017-May-21 16:25N 53°32' E 009°60'0 0.0
2017-May-21 15:58N 53°32' E 009°60'0 0.0
2017-May-21 15:28N 53°32' E 009°60'0 0.0
2017-May-21 14:58N 53°32' E 009°60'0 0.0
2017-May-21 13:59N 53°32' E 009°60'0 0.0
2017-May-21 13:28N 53°32' E 009°60'0 0.0
2017-May-21 13:00N 53°32' E 009°60'0 0.0
2017-May-21 12:30N 53°32' E 009°60'0 0.6
2017-May-21 12:01N 53°32' E 009°59'3 5.6
2017-May-21 11:30N 53°32' E 009°55'4 7.3
2017-May-21 11:00N 53°33' E 009°49'510.8
2017-May-21 10:31N 53°34' E 009°40'713.6
2017-May-21 10:01N 53°39' E 009°31'612.7
2017-May-21 09:30N 53°44' E 009°26'815.4
2017-May-21 09:00N 53°51' E 009°19'714.0
2017-May-21 08:31N 53°53' E 009°08'611.0
2017-May-21 08:00N 53°51' E 008°59'713.7
2017-May-21 07:30N 53°50' E 008°47'611.2
2017-May-21 07:01N 53°54' E 008°41'714.4
2017-May-21 06:30N 53°58' E 008°31'815.5
2017-May-21 06:00N 53°60' E 008°18'6349.5
2017-May-21 06:00N 53°54' E 008°18'815.4 190 / 231023.010.8 14.011.211.0
2017-May-21 05:29N 53°59' E 008°08'714.4
2017-May-21 05:00N 53°54' E 008°00'443.6 170 / 211023.3 5.4 12.010.112.0
2017-May-21 04:53N 53°58' E 007°58'613.3
2017-May-21 04:27N 53°57' E 007°48'816.7
2017-May-21 04:00N 53°54' E 007°36'1515.4 170 / 171023.0 5.4 12.010.112.0
2017-May-21 03:00N 53°48' E 007°12'6017.7 180 / 161022.810.8 11.911.912.0
2017-May-20 23:37N 53°35' E 005°33'717.2
2017-May-20 23:12N 53°33' E 005°22'732.2
2017-May-20 23:00N 53°30' E 005°12'235.0 210 / 221022.010.8 14.010.212.0
2017-May-20 22:55N 53°32' E 005°14'717.2
2017-May-20 22:30N 53°30' E 005°02'917.2
2017-May-20 21:59N 53°26' E 004°49'816.4
2017-May-20 21:30N 53°20' E 004°41'917.4
2017-May-20 21:00N 53°12' E 004°33'917.1
2017-May-20 20:30N 53°05' E 004°26'917.2
2017-May-20 20:00N 52°57' E 004°19'917.3
2017-May-20 19:30N 52°49' E 004°14'816.5
2017-May-20 19:00N 52°42' E 004°06'713.0
2017-May-20 18:30N 52°36' E 004°06'5 9.6
2017-May-20 18:01N 52°32' E 004°10'5 9.9
2017-May-20 17:30N 52°30' E 004°18'612.6
2017-May-20 17:00N 52°29' E 004°28'5 9.5
2017-May-20 16:31N 52°28' E 004°36'1 1.4
2017-May-20 16:00N 52°28' E 004°37'3 6.1
2017-May-20 15:30N 52°27' E 004°41'4 8.6
2017-May-20 15:00N 52°25' E 004°48'5 4.9
2017-May-20 14:00N 52°23' E 004°55'0 0.0
2017-May-20 13:30N 52°23' E 004°55'0 0.0
2017-May-20 13:00N 52°23' E 004°55'0 0.0
2017-May-20 12:30N 52°23' E 004°55'0 0.0
2017-May-20 12:00N 52°23' E 004°55'0 0.0
2017-May-20 11:30N 52°23' E 004°55'0 0.0
2017-May-20 11:00N 52°23' E 004°55'0 0.0
2017-May-20 10:30N 52°23' E 004°55'0 0.0
2017-May-20 10:00N 52°23' E 004°55'0 0.0
2017-May-20 09:30N 52°23' E 004°55'0 0.0
2017-May-20 09:00N 52°23' E 004°55'0 0.0
2017-May-20 08:30N 52°23' E 004°55'0 0.0
2017-May-20 08:00N 52°23' E 004°55'0 0.0
2017-May-20 07:30N 52°23' E 004°55'0 0.0
2017-May-20 07:00N 52°23' E 004°55'0 0.0
2017-May-20 06:30N 52°23' E 004°55'0 0.0
2017-May-20 06:00N 52°23' E 004°55'0 0.0
2017-May-20 05:30N 52°23' E 004°55'0 0.0
2017-May-20 05:01N 52°23' E 004°55'1 2.2
2017-May-20 04:31N 52°24' E 004°54'4 7.6
2017-May-20 04:01N 52°25' E 004°48'4 8.3
2017-May-20 03:30N 52°27' E 004°42'3 6.5
2017-May-20 03:00N 52°28' E 004°37'1 1.6
2017-May-20 02:30N 52°28' E 004°35'4 7.7
2017-May-20 02:00N 52°28' E 004°29'4 7.9
2017-May-20 01:30N 52°29' E 004°23'5 9.7
2017-May-20 01:00N 52°29' E 004°15'612.6
2017-May-20 00:30N 52°28' E 004°04'612.8
2017-May-20 00:00N 52°27' E 003°54'612.6
2017-May-19 23:30N 52°25' E 003°44'5112.1
2017-May-19 19:17N 51°48' E 002°48'413.1
2017-May-19 18:59N 51°44' E 002°46'612.3
2017-May-19 18:30N 51°38' E 002°43'612.7
2017-May-19 18:00N 51°32' E 002°42'611.8
2017-May-19 17:30N 51°26' E 002°43'4 8.9
2017-May-19 17:00N 51°22' E 002°46'612.9
2017-May-19 16:30N 51°23' E 002°56'713.3
2017-May-19 16:00N 51°24' E 003°07'5 9.6
2017-May-19 15:30N 51°21' E 003°12'0 0.2
2017-May-19 14:59N 51°20' E 003°12'0 0.0
2017-May-19 13:59N 51°20' E 003°12'0 0.0
2017-May-19 13:29N 51°20' E 003°12'0 0.0
2017-May-19 12:59N 51°20' E 003°12'0 0.0
2017-May-19 12:29N 51°20' E 003°12'2 4.9
2017-May-19 12:00N 51°18' E 003°12'2441.5 250 / 211009.810.8 13.011.112.0
2017-May-19 11:59N 51°20' E 003°12'0 0.0
2017-May-19 11:29N 51°20' E 003°12'0 0.0
2017-May-19 10:59N 51°20' E 003°12'0 0.0
2017-May-19 10:29N 51°20' E 003°12'0 0.0
2017-May-19 09:59N 51°20' E 003°12'0 0.0
2017-May-19 09:29N 51°20' E 003°12'0 0.0
2017-May-19 08:59N 51°20' E 003°12'0 0.0
2017-May-19 08:29N 51°20' E 003°12'0 0.0
2017-May-19 07:59N 51°20' E 003°12'0 0.0
2017-May-19 07:29N 51°20' E 003°12'0 0.0
2017-May-19 06:59N 51°20' E 003°12'0 0.0
2017-May-19 06:29N 51°20' E 003°12'0 0.0
2017-May-19 05:59N 51°20' E 003°12'1 2.0
2017-May-19 05:30N 51°21' E 003°12'714.0
2017-May-19 05:01N 51°25' E 003°02'917.0
2017-May-19 04:31N 51°25' E 002°48'1120.4
2017-May-19 04:00N 51°18' E 002°36'514.3 300 / 241005.4 5.4 10.0 7.913.0
2017-May-19 03:38N 51°22' E 002°32'415.4
2017-May-19 03:20N 51°21' E 002°25'515.2
2017-May-19 03:00N 51°18' E 002°18'0 4.3
2017-May-19 03:00N 51°18' E 002°18'815.5 290 / 301005.510.8 10.0 7.913.0
2017-May-19 02:30N 51°14' E 002°08'714.9
2017-May-19 02:00N 51°11' E 001°57'7471.4
2017-May-19 02:00N 51°06' E 001°48'2 3.6 290 / 291006.010.8 10.010.012.0
2017-May-19 01:30N 51°07' E 001°47'714.6
2017-May-19 01:00N 51°02' E 001°39'714.3
2017-May-19 00:30N 50°58' E 001°30'713.5
2017-May-19 00:00N 50°51' E 001°26'4715.4
2017-May-18 20:55N 50°23' E 000°27'717.3
2017-May-18 20:30N 50°21' E 000°16'917.2
2017-May-18 20:00N 50°19' E 000°03'917.2
2017-May-18 19:30N 50°15' W 000°09'917.1
2017-May-18 19:00N 50°11' W 000°21'1016.9
2017-May-18 18:27N 50°07' W 000°35'1 2.7
2017-May-18 18:00N 50°06' W 000°36'7256.1 300 / 231010.0 5.4 11.010.011.4
2017-May-18 17:58N 50°03' W 000°46'  

Dump ship's entire track history